createdAt,value
2022-10-13T00:01:54.636Z,5.25
2022-10-13T00:07:26.209Z,5.35
2022-10-13T00:12:57.780Z,5.40
2022-10-13T00:18:29.588Z,5.45
2022-10-13T00:24:01.114Z,5.50
2022-10-13T00:29:33.225Z,5.60
2022-10-13T00:35:05.082Z,5.65
2022-10-13T00:40:37.246Z,5.80
2022-10-13T00:46:08.950Z,5.95
2022-10-13T00:51:40.789Z,5.95
2022-10-13T00:57:12.213Z,5.95
2022-10-13T01:02:44.427Z,6.30
2022-10-13T01:08:23.911Z,6.35
2022-10-13T01:13:55.738Z,6.50
2022-10-13T01:19:27.814Z,6.70
2022-10-13T01:24:59.852Z,6.80
2022-10-13T01:30:31.254Z,6.90
2022-10-13T01:36:03.371Z,7.05
2022-10-13T01:41:35.217Z,7.15
2022-10-13T01:47:07.326Z,7.30
2022-10-13T01:52:39.344Z,7.40
2022-10-13T01:58:11.622Z,7.50
2022-10-13T02:03:43.852Z,7.60
2022-10-13T02:09:16.004Z,7.65
2022-10-13T02:14:47.808Z,7.75
2022-10-13T02:20:19.356Z,7.80
2022-10-13T02:25:51.376Z,7.95
2022-10-13T02:31:23.241Z,8.05
2022-10-13T02:36:55.231Z,8.10
2022-10-13T02:42:27.063Z,8.25
2022-10-13T02:47:58.879Z,8.35
2022-10-13T02:53:30.621Z,8.45
2022-10-13T02:59:02.360Z,8.60
2022-10-13T03:04:34.420Z,8.80
2022-10-13T03:10:06.093Z,8.90
2022-10-13T03:15:37.763Z,8.95
2022-10-13T03:21:09.777Z,9.25
2022-10-13T03:26:41.672Z,9.30
2022-10-13T03:32:13.604Z,9.35
2022-10-13T03:37:45.648Z,9.40
2022-10-13T03:43:17.516Z,9.75
2022-10-13T03:48:49.420Z,9.90
2022-10-13T03:54:21.232Z,9.95
2022-10-13T03:59:53.235Z,10.05
2022-10-13T04:05:25.167Z,10.20
2022-10-13T04:10:57.233Z,10.20
2022-10-13T04:16:29.433Z,10.35
2022-10-13T04:22:01.830Z,10.45
2022-10-13T04:27:34.039Z,10.45
2022-10-13T04:33:05.922Z,10.55
2022-10-13T04:38:38.164Z,10.65
2022-10-13T04:44:10.497Z,10.70
2022-10-13T04:49:42.765Z,10.75
2022-10-13T04:55:14.593Z,10.90
2022-10-13T05:00:46.820Z,10.95
2022-10-13T05:06:19.025Z,11.05
2022-10-13T05:11:51.356Z,11.15
2022-10-13T05:17:23.351Z,11.20
2022-10-13T05:22:55.499Z,11.25
2022-10-13T05:28:27.791Z,11.40
2022-10-13T05:33:59.968Z,11.55
2022-10-13T05:39:32.150Z,11.65
2022-10-13T05:45:04.589Z,11.65
2022-10-13T05:56:06.737Z,11.95
2022-10-13T06:01:38.996Z,12.10
2022-10-13T06:07:11.393Z,12.15
2022-10-13T06:12:43.678Z,12.30
2022-10-13T06:18:15.851Z,12.45
2022-10-13T06:23:47.851Z,12.50
2022-10-13T06:29:19.568Z,12.60
2022-10-13T06:34:51.733Z,12.80
2022-10-13T06:40:23.920Z,12.85
2022-10-13T06:45:55.559Z,12.95
2022-10-13T06:51:27.604Z,13.05
2022-10-13T06:56:59.968Z,13.20
2022-10-13T07:02:32.070Z,13.35
2022-10-13T07:08:04.448Z,13.50
2022-10-13T07:13:37.346Z,13.65
2022-10-13T07:19:08.654Z,13.85
2022-10-13T07:24:40.593Z,13.90
2022-10-13T07:30:12.729Z,14.00
2022-10-13T07:35:45.101Z,14.20
2022-10-13T07:41:17.186Z,14.20
2022-10-13T07:46:48.916Z,14.25
2022-10-13T07:52:21.155Z,14.40
2022-10-13T07:57:53.004Z,14.50
2022-10-13T08:03:24.817Z,14.50
2022-10-13T08:08:56.674Z,14.70
2022-10-13T08:11:08.674Z,3.00
2022-10-13T08:16:40.368Z,2.46
2022-10-13T08:22:12.213Z,2.95
2022-10-13T08:27:51.169Z,3.44
2022-10-13T08:33:15.524Z,3.14
2022-10-13T08:38:47.477Z,2.94
2022-10-13T08:49:50.977Z,2.94
2022-10-13T08:55:23.028Z,2.94
2022-10-13T09:00:54.801Z,2.65
2022-10-13T09:11:55.676Z,2.69
2022-10-13T09:17:27.223Z,2.56
2022-10-13T09:22:58.920Z,2.59
2022-10-13T09:28:30.835Z,2.61
2022-10-13T09:34:02.520Z,2.57
2022-10-13T09:39:34.459Z,2.42
2022-10-13T09:45:06.187Z,2.34
2022-10-13T09:50:37.966Z,2.32
2022-10-13T09:58:29.716Z,0.00
2022-10-13T10:04:01.141Z,0.99
2022-10-13T10:09:32.764Z,0.99
2022-10-13T10:15:03.946Z,1.73
2022-10-13T10:20:35.500Z,1.97
2022-10-13T10:26:07.299Z,2.13
2022-10-13T10:31:39.124Z,2.11
2022-10-13T10:37:10.948Z,1.96
2022-10-13T10:42:42.875Z,1.96
2022-10-13T10:48:14.516Z,1.87
2022-10-13T10:53:46.534Z,1.87
2022-10-13T10:59:18.076Z,1.80
2022-10-13T11:04:49.846Z,1.74
2022-10-13T11:10:21.774Z,1.75
2022-10-13T11:15:53.639Z,1.70
2022-10-13T11:21:25.249Z,1.72
2022-10-13T11:26:57.172Z,1.67
2022-10-13T11:32:31.197Z,1.85
2022-10-13T11:38:13.958Z,1.75
2022-10-13T11:43:34.629Z,1.80
2022-10-13T11:49:06.181Z,1.85
2022-10-13T11:54:37.702Z,2.00
2022-10-13T12:05:39.125Z,2.20
2022-10-13T12:11:10.842Z,2.35
2022-10-13T12:16:42.651Z,2.35
2022-10-13T12:22:14.390Z,2.40
2022-10-13T12:27:46.275Z,2.45
2022-10-13T12:33:18.075Z,2.55
2022-10-13T12:38:49.659Z,2.60
2022-10-13T12:44:21.602Z,2.75
2022-10-13T12:49:53.221Z,2.95
2022-10-13T12:55:25.171Z,3.15
2022-10-13T13:00:57.107Z,3.25
2022-10-13T13:06:28.908Z,3.30
2022-10-13T13:12:00.471Z,3.50
2022-10-13T13:17:53.310Z,3.70
2022-10-13T13:23:03.823Z,3.85
2022-10-13T13:28:35.123Z,3.90
2022-10-13T13:34:06.901Z,4.00
2022-10-13T13:45:07.760Z,4.05
2022-10-13T13:50:39.532Z,4.20
2022-10-13T13:56:11.266Z,4.25
2022-10-13T14:01:43.193Z,4.35
2022-10-13T14:07:14.950Z,4.50
2022-10-13T14:12:46.677Z,4.55
2022-10-13T14:18:18.455Z,4.55
2022-10-13T14:23:50.103Z,4.80
2022-10-13T14:29:22.491Z,4.90
2022-10-13T14:34:54.313Z,5.15
2022-10-13T14:40:27.536Z,5.25
2022-10-13T14:45:59.412Z,5.40
2022-10-13T14:51:31.202Z,5.50
2022-10-13T14:57:02.838Z,5.55
2022-10-13T15:02:34.366Z,5.60
2022-10-13T15:13:35.591Z,5.85
2022-10-13T15:24:37.023Z,6.10
2022-10-13T15:30:08.566Z,6.25
2022-10-13T15:35:40.411Z,6.25
2022-10-13T15:41:11.981Z,6.40
2022-10-13T15:47:05.617Z,6.50
2022-10-13T15:52:15.784Z,6.60
2022-10-13T15:57:47.612Z,6.60
2022-10-13T16:03:19.346Z,6.65
2022-10-13T16:08:51.302Z,6.65
2022-10-13T16:14:23.124Z,6.65
2022-10-13T16:19:54.718Z,6.80
2022-10-13T16:25:26.563Z,6.95
2022-10-13T16:36:27.930Z,7.25
2022-10-13T16:41:59.886Z,7.45
2022-10-13T16:47:31.641Z,7.55
2022-10-13T16:53:03.400Z,7.55
2022-10-13T16:58:35.221Z,7.60
2022-10-13T17:04:07.024Z,7.70
2022-10-13T17:09:38.830Z,7.75
2022-10-13T17:15:10.414Z,7.90
2022-10-13T17:20:42.283Z,7.95
2022-10-13T17:26:13.943Z,8.00
2022-10-13T17:31:45.930Z,8.05
2022-10-13T17:37:17.844Z,8.10
2022-10-13T17:42:49.303Z,8.15
2022-10-13T17:48:23.169Z,8.25
2022-10-13T17:53:52.997Z,8.30
2022-10-13T17:59:24.913Z,8.40
2022-10-13T18:04:56.633Z,8.50
2022-10-13T18:10:33.883Z,8.70
2022-10-13T18:16:00.789Z,8.75
2022-10-13T18:21:32.911Z,8.85
2022-10-13T18:27:04.864Z,8.90
2022-10-13T18:32:36.470Z,9.00
2022-10-13T18:38:08.350Z,9.10
2022-10-13T18:54:43.452Z,9.35
2022-10-13T19:00:15.231Z,9.45
2022-10-13T19:05:47.301Z,9.55
2022-10-13T19:11:18.983Z,9.65
2022-10-13T19:16:50.719Z,9.70
2022-10-13T19:22:22.882Z,9.90
2022-10-13T19:27:54.703Z,10.05
2022-10-13T19:33:26.171Z,10.05
2022-10-13T19:38:58.359Z,10.15
2022-10-13T19:44:30.231Z,10.15
2022-10-13T19:55:31.809Z,10.50
2022-10-13T20:01:03.841Z,10.65
2022-10-13T20:12:05.276Z,10.80
2022-10-13T20:17:36.994Z,10.95
2022-10-13T20:34:10.459Z,11.25
2022-10-13T20:39:44.478Z,11.30
2022-10-13T20:45:16.525Z,11.30
2022-10-13T20:50:48.459Z,11.35
2022-10-13T21:18:28.865Z,11.80
2022-10-13T21:24:01.105Z,11.95
2022-10-13T21:35:04.780Z,12.05
2022-10-13T21:40:37.067Z,12.25
2022-10-13T21:51:41.041Z,12.60
2022-10-13T21:57:13.267Z,12.60
2022-10-13T22:02:44.999Z,12.70
2022-10-13T22:08:16.808Z,12.70
2022-10-13T22:19:21.203Z,13.10
2022-10-13T22:24:53.000Z,13.20
2022-10-13T22:30:24.682Z,13.30
2022-10-13T22:35:58.485Z,13.30
2022-10-13T22:41:30.438Z,13.45
2022-10-13T22:52:32.303Z,13.60
2022-10-13T22:58:04.431Z,13.65
2022-10-13T23:09:06.356Z,14.00
2022-10-13T23:11:17.214Z,0.00
2022-10-13T23:16:48.562Z,0.99
2022-10-13T23:22:20.454Z,0.99
2022-10-13T23:27:52.318Z,0.98
2022-10-13T23:33:24.263Z,1.18
2022-10-13T23:38:55.989Z,1.15
2022-10-13T23:46:48.213Z,1.00
2022-10-13T23:52:20.157Z,0.49
2022-10-13T23:57:51.966Z,0.33
